Time;durP1;ratioP1;P1;durP2;ratioP2;P2;SDS_P1;SDS_P2;PMS_P1;PMS_P2;Temp;Humidity;BMP_temperature;BMP_pressure;BME280_temperature;BME280_humidity;BME280_pressure;Samples;Min_cycle;Max_cycle;Signal;HPM_P1;HPM_P2
2024/01/16 00:00:16;;;;;;;8.02;2.63;;;-2.80;99.90;;;;;;5034783;28;20033;-79
2024/01/16 00:02:41;;;;;;;4.68;2.35;;;-2.90;99.90;;;;;;5049705;28;20033;-79
2024/01/16 00:05:07;;;;;;;4.25;2.25;;;-3.00;99.90;;;;;;5054598;28;20037;-79
2024/01/16 00:07:35;;;;;;;4.32;2.55;;;-3.00;99.90;;;;;;5052938;28;20121;-79
2024/01/16 00:10:01;;;;;;;3.75;2.35;;;-3.10;99.90;;;;;;5053317;28;20029;-79
2024/01/16 00:12:26;;;;;;;5.00;2.35;;;-3.10;99.90;;;;;;5050820;28;20036;-79
2024/01/16 00:14:52;;;;;;;5.90;2.72;;;-3.20;99.90;;;;;;5016789;28;20037;-79
2024/01/16 00:17:17;;;;;;;5.10;2.28;;;-3.30;99.90;;;;;;5034715;28;20025;-79
2024/01/16 00:19:43;;;;;;;6.55;2.75;;;-3.30;99.90;;;;;;5033735;28;20124;-79
2024/01/16 00:22:09;;;;;;;4.03;2.83;;;-3.30;99.90;;;;;;5033924;28;20030;-79
2024/01/16 00:24:35;;;;;;;6.55;2.75;;;-3.30;99.90;;;;;;5053025;28;20087;-79
2024/01/16 00:27:00;;;;;;;4.82;2.72;;;-3.30;99.90;;;;;;5053369;28;20040;-79
2024/01/16 00:29:26;;;;;;;5.20;2.10;;;-3.40;99.90;;;;;;5030628;28;20129;-79
2024/01/16 00:31:51;;;;;;;5.50;2.88;;;-3.40;99.90;;;;;;5035452;28;20034;-79
2024/01/16 00:34:17;;;;;;;5.05;2.50;;;-3.60;99.90;;;;;;5052685;28;20079;-79
2024/01/16 00:36:43;;;;;;;4.53;2.50;;;-3.70;99.90;;;;;;5054649;28;20029;-79
2024/01/16 00:39:09;;;;;;;4.38;2.40;;;-3.80;99.90;;;;;;5053083;28;20385;-79
2024/01/16 00:41:35;;;;;;;5.30;1.98;;;-3.90;99.90;;;;;;5011545;28;20394;-79
2024/01/16 00:44:00;;;;;;;4.43;2.20;;;-3.90;99.90;;;;;;5045545;28;20028;-79
2024/01/16 00:46:26;;;;;;;8.38;2.60;;;-3.90;99.90;;;;;;5040070;28;20083;-79
2024/01/16 00:48:52;;;;;;;5.57;2.67;;;-4.00;99.90;;;;;;5016675;28;20061;-79
2024/01/16 00:51:17;;;;;;;4.50;2.05;;;-4.10;99.90;;;;;;5034290;28;20029;-79
2024/01/16 00:53:43;;;;;;;4.45;2.45;;;-4.10;99.90;;;;;;5045952;28;20392;-79
2024/01/16 00:56:12;;;;;;;7.50;2.67;;;-4.10;99.90;;;;;;5043188;28;20084;-79
2024/01/16 00:58:38;;;;;;;4.47;2.40;;;-4.10;99.90;;;;;;5037043;28;20079;-80
2024/01/16 01:01:04;;;;;;;3.90;1.73;;;-4.10;99.90;;;;;;5041585;28;20108;-80
2024/01/16 01:03:30;;;;;;;4.72;2.25;;;-4.10;99.90;;;;;;5058408;28;20056;-80
2024/01/16 01:05:56;;;;;;;4.40;2.08;;;-4.10;99.90;;;;;;5057177;28;20033;-80
2024/01/16 01:08:21;;;;;;;4.32;2.10;;;-4.20;99.90;;;;;;5040000;28;20445;-80
2024/01/16 01:10:47;;;;;;;4.28;2.15;;;-4.20;99.90;;;;;;5038141;28;20034;-80
2024/01/16 01:13:13;;;;;;;4.22;1.90;;;-4.30;99.90;;;;;;5045258;28;20477;-80
2024/01/16 01:15:39;;;;;;;6.05;2.40;;;-4.40;99.90;;;;;;5051098;28;20099;-80
2024/01/16 01:18:06;;;;;;;5.40;2.20;;;-4.50;99.90;;;;;;5038559;28;20030;-80
2024/01/16 01:20:31;;;;;;;4.40;1.80;;;-4.60;99.90;;;;;;5037966;28;20025;-80
2024/01/16 01:22:58;;;;;;;4.45;2.00;;;-4.70;99.90;;;;;;5030999;28;20047;-80
2024/01/16 01:25:25;;;;;;;4.43;2.00;;;-4.60;99.90;;;;;;5058072;28;20036;-80
2024/01/16 01:27:51;;;;;;;4.07;1.90;;;-4.70;99.90;;;;;;5057812;28;20021;-80
2024/01/16 01:30:18;;;;;;;5.32;2.25;;;-4.80;99.90;;;;;;5058013;28;20451;-80
2024/01/16 01:32:44;;;;;;;3.80;2.10;;;-4.80;99.90;;;;;;5054824;28;20021;-80
2024/01/16 01:35:11;;;;;;;3.55;2.00;;;-4.90;99.90;;;;;;5057705;28;20452;-79
2024/01/16 01:37:38;;;;;;;5.72;2.45;;;-4.90;99.90;;;;;;5037950;28;20477;-80
2024/01/16 01:40:04;;;;;;;4.15;1.83;;;-5.00;99.90;;;;;;5036374;28;20056;-80
2024/01/16 01:42:29;;;;;;;3.47;2.00;;;-5.10;99.90;;;;;;5039869;28;20512;-79
2024/01/16 01:44:55;;;;;;;4.57;2.05;;;-5.20;99.90;;;;;;5055849;28;20104;-80
2024/01/16 01:47:21;;;;;;;4.55;2.08;;;-5.20;99.90;;;;;;5037858;28;20049;-79
2024/01/16 01:49:47;;;;;;;5.18;2.10;;;-5.20;99.90;;;;;;5037206;28;20465;-80
2024/01/16 01:52:13;;;;;;;3.72;1.73;;;-5.20;99.90;;;;;;5037599;28;20389;-79
2024/01/16 01:54:40;;;;;;;3.75;1.85;;;-5.20;99.90;;;;;;5048139;28;20029;-79
2024/01/16 01:57:08;;;;;;;2.83;1.50;;;-5.10;99.90;;;;;;5037066;28;20141;-79
2024/01/16 01:59:34;;;;;;;4.78;2.30;;;-5.10;99.90;;;;;;5036722;28;20022;-79
2024/01/16 02:02:00;;;;;;;5.18;2.45;;;-5.20;99.90;;;;;;5040444;28;20030;-79
2024/01/16 02:04:27;;;;;;;4.00;1.90;;;-5.20;99.90;;;;;;5053271;28;20025;-79
2024/01/16 02:06:53;;;;;;;3.78;1.98;;;-5.30;99.90;;;;;;5056696;28;20171;-79
2024/01/16 02:09:20;;;;;;;7.40;3.40;;;-5.30;99.90;;;;;;5057018;28;20116;-79
2024/01/16 02:11:45;;;;;;;4.45;2.30;;;-5.30;99.90;;;;;;5047668;28;20108;-79
2024/01/16 02:14:11;;;;;;;5.18;2.47;;;-5.40;99.90;;;;;;5051280;28;20057;-79
2024/01/16 02:16:39;;;;;;;4.45;2.13;;;-5.40;99.90;;;;;;5041065;28;20026;-79
2024/01/16 02:19:06;;;;;;;4.68;2.13;;;-5.40;99.90;;;;;;5036982;28;20029;-79
2024/01/16 02:21:38;;;;;;;4.22;1.95;;;-5.50;99.90;;;;;;5036606;28;20030;-79
2024/01/16 02:24:06;;;;;;;5.20;1.92;;;-5.50;99.90;;;;;;5050111;28;20029;-79
2024/01/16 02:26:33;;;;;;;3.28;1.58;;;-5.60;99.90;;;;;;5040165;28;20037;-79
2024/01/16 02:29:01;;;;;;;4.85;2.00;;;-5.60;99.90;;;;;;5035301;28;20067;-79
2024/01/16 02:31:27;;;;;;;3.58;1.80;;;-5.70;99.90;;;;;;5024629;28;20033;-79
2024/01/16 02:33:53;;;;;;;4.15;2.20;;;-5.80;99.90;;;;;;5055124;28;20496;-79
2024/01/16 02:36:18;;;;;;;4.03;2.05;;;-5.80;99.90;;;;;;5056458;28;20025;-79
2024/01/16 02:38:44;;;;;;;4.20;1.63;;;-5.80;99.90;;;;;;5055020;28;20036;-79
2024/01/16 02:41:11;;;;;;;3.97;2.17;;;-5.80;99.90;;;;;;5036168;28;20104;-79
2024/01/16 02:43:37;;;;;;;3.90;1.90;;;-5.80;99.90;;;;;;5041981;28;20497;-79
2024/01/16 02:46:03;;;;;;;4.97;1.85;;;-5.80;99.90;;;;;;5035744;28;20038;-79
2024/01/16 02:48:29;;;;;;;4.35;1.80;;;-5.80;99.90;;;;;;5034927;28;20125;-79
2024/01/16 02:50:55;;;;;;;4.35;1.77;;;-5.90;99.90;;;;;;5034799;28;20057;-79
2024/01/16 02:53:20;;;;;;;7.65;3.30;;;-5.90;99.90;;;;;;5042490;28;20127;-79
2024/01/16 02:55:46;;;;;;;10.18;4.47;;;-6.00;99.90;;;;;;5050755;28;20062;-79
2024/01/16 02:58:11;;;;;;;7.45;3.92;;;-6.10;99.90;;;;;;5035448;28;20026;-79
2024/01/16 03:00:37;;;;;;;6.97;3.42;;;-6.20;99.90;;;;;;5034702;28;20120;-79
2024/01/16 03:03:03;;;;;;;8.07;3.42;;;-6.20;99.90;;;;;;5054812;28;20037;-79
2024/01/16 03:05:29;;;;;;;6.63;2.85;;;-6.10;99.90;;;;;;5054642;28;20040;-79
2024/01/16 03:07:55;;;;;;;7.80;3.80;;;-6.10;99.90;;;;;;5038017;28;20400;-79
2024/01/16 03:10:20;;;;;;;9.77;4.05;;;-6.10;99.90;;;;;;5055649;28;20504;-79
2024/01/16 03:12:47;;;;;;;9.73;4.30;;;-6.10;99.90;;;;;;5050734;28;20037;-79
2024/01/16 03:15:13;;;;;;;10.00;3.70;;;-6.10;99.90;;;;;;5050346;28;20033;-79
2024/01/16 03:17:38;;;;;;;6.80;3.13;;;-6.00;99.90;;;;;;5033952;28;20091;-79
2024/01/16 03:20:05;;;;;;;6.63;2.88;;;-6.00;99.90;;;;;;5018102;28;20485;-79
2024/01/16 03:22:30;;;;;;;6.70;2.72;;;-5.90;99.90;;;;;;5034954;28;20087;-79
2024/01/16 03:24:56;;;;;;;6.53;3.60;;;-6.00;99.90;;;;;;5054925;28;20033;-79
2024/01/16 03:27:22;;;;;;;5.45;3.00;;;-6.10;99.90;;;;;;5054430;28;20100;-80
2024/01/16 03:29:48;;;;;;;4.32;2.40;;;-6.10;99.90;;;;;;5043655;28;20072;-80
2024/01/16 03:32:14;;;;;;;6.03;2.75;;;-6.20;99.90;;;;;;5048385;28;20047;-80
2024/01/16 03:34:40;;;;;;;4.57;2.20;;;-6.20;99.90;;;;;;5055304;28;20025;-80
2024/01/16 03:37:06;;;;;;;6.00;2.90;;;-6.20;99.90;;;;;;5034162;28;20021;-79
2024/01/16 03:39:31;;;;;;;3.92;2.00;;;-6.20;99.90;;;;;;5055759;28;20492;-79
2024/01/16 03:41:57;;;;;;;4.22;2.30;;;-6.20;99.90;;;;;;5055386;28;20029;-79
2024/01/16 03:44:22;;;;;;;5.50;2.38;;;-6.10;99.90;;;;;;5037084;28;20029;-79
2024/01/16 03:46:48;;;;;;;3.83;2.13;;;-6.10;99.90;;;;;;5034083;28;20038;-78
2024/01/16 03:49:14;;;;;;;4.65;2.45;;;-6.10;99.90;;;;;;5034656;28;20056;-78
2024/01/16 03:51:42;;;;;;;5.35;2.22;;;-6.10;99.90;;;;;;5034934;28;20017;-78
2024/01/16 03:54:08;;;;;;;3.50;2.00;;;-6.20;99.90;;;;;;5048518;28;20116;-78
2024/01/16 03:56:33;;;;;;;3.97;2.00;;;-6.20;99.90;;;;;;5036952;28;20112;-78
2024/01/16 03:58:59;;;;;;;3.03;1.80;;;-6.20;99.90;;;;;;5054551;28;20025;-79
2024/01/16 04:01:37;;;;;;;3.20;1.98;;;-6.20;99.90;;;;;;5036949;28;20037;-78
2024/01/16 04:04:06;;;;;;;5.45;1.83;;;-6.20;99.90;;;;;;5041408;28;20041;-79
2024/01/16 04:06:32;;;;;;;6.32;2.80;;;-6.30;99.90;;;;;;5054112;28;20021;-79
2024/01/16 04:08:58;;;;;;;13.02;5.30;;;-6.40;99.90;;;;;;5055294;28;20029;-79
2024/01/16 04:11:24;;;;;;;19.85;9.40;;;-6.30;99.90;;;;;;5054884;28;20104;-79
2024/01/16 04:13:49;;;;;;;21.13;9.82;;;-6.30;99.90;;;;;;5042062;28;20454;-79
2024/01/16 04:16:15;;;;;;;16.35;6.45;;;-6.30;99.90;;;;;;5017105;28;20030;-79
2024/01/16 04:18:43;;;;;;;9.85;4.05;;;-6.30;99.90;;;;;;5034801;28;20036;-79
2024/01/16 04:21:09;;;;;;;7.22;4.07;;;-6.30;99.90;;;;;;5034811;28;20538;-79
2024/01/16 04:23:35;;;;;;;10.65;3.90;;;-6.30;99.90;;;;;;5043628;28;20036;-79
2024/01/16 04:26:01;;;;;;;8.95;3.83;;;-6.30;99.90;;;;;;5055067;28;20385;-79
2024/01/16 04:28:26;;;;;;;7.80;3.40;;;-6.30;99.90;;;;;;5054464;28;20025;-79
2024/01/16 04:30:52;;;;;;;7.05;2.92;;;-6.30;99.90;;;;;;5057435;28;20032;-79
2024/01/16 04:33:18;;;;;;;9.45;4.10;;;-6.30;99.90;;;;;;5058652;28;20025;-79
2024/01/16 04:35:44;;;;;;;7.03;3.42;;;-6.30;99.90;;;;;;5050708;28;20056;-78
2024/01/16 04:38:10;;;;;;;8.88;3.83;;;-6.30;99.90;;;;;;5038762;28;20132;-78
2024/01/16 04:40:36;;;;;;;6.13;3.30;;;-6.30;99.90;;;;;;5037271;28;20501;-78
2024/01/16 04:43:02;;;;;;;7.60;3.60;;;-6.30;99.90;;;;;;5051850;28;20025;-79
2024/01/16 04:45:28;;;;;;;5.55;2.90;;;-6.30;99.90;;;;;;5037577;28;20076;-78
2024/01/16 04:47:54;;;;;;;5.50;2.90;;;-6.20;99.90;;;;;;5037782;28;20389;-79
2024/01/16 04:50:20;;;;;;;4.68;2.80;;;-6.20;99.90;;;;;;5037800;28;20501;-79
2024/01/16 04:52:46;;;;;;;8.98;3.70;;;-6.30;99.90;;;;;;5040374;28;20030;-79
2024/01/16 04:55:12;;;;;;;4.93;2.55;;;-6.30;99.90;;;;;;5057980;28;20057;-80
2024/01/16 04:57:37;;;;;;;4.88;2.47;;;-6.30;99.90;;;;;;5040977;28;20074;-80
2024/01/16 05:00:06;;;;;;;5.43;2.50;;;-6.20;99.90;;;;;;5041312;28;20409;-79
2024/01/16 05:02:33;;;;;;;4.78;2.63;;;-6.10;99.90;;;;;;5057853;28;20025;-80
2024/01/16 05:04:59;;;;;;;6.53;3.00;;;-6.10;99.90;;;;;;5057609;28;20078;-79
2024/01/16 05:07:25;;;;;;;5.38;2.35;;;-6.00;99.90;;;;;;5056169;28;20033;-79
2024/01/16 05:09:51;;;;;;;4.18;2.08;;;-6.00;99.90;;;;;;5037249;28;20091;-79
2024/01/16 05:12:18;;;;;;;5.75;2.42;;;-5.90;99.90;;;;;;5038866;28;20025;-79
2024/01/16 05:14:43;;;;;;;14.18;6.45;;;-6.00;99.90;;;;;;5054452;28;20116;-79
2024/01/16 05:17:09;;;;;;;17.15;6.63;;;-6.00;99.90;;;;;;5039396;28;20053;-79
2024/01/16 05:19:35;;;;;;;8.48;4.05;;;-6.00;99.90;;;;;;5038723;28;20049;-79
2024/01/16 05:22:00;;;;;;;8.15;3.80;;;-6.00;99.90;;;;;;5037123;28;20040;-79
2024/01/16 05:24:26;;;;;;;6.75;3.00;;;-6.00;99.90;;;;;;5051613;28;20063;-79
2024/01/16 05:26:52;;;;;;;6.00;3.53;;;-6.00;99.90;;;;;;5032373;28;20034;-78
2024/01/16 05:29:18;;;;;;;7.63;3.33;;;-6.00;99.90;;;;;;5018284;28;20030;-79
2024/01/16 05:31:44;;;;;;;7.22;3.53;;;-6.00;99.90;;;;;;5033837;28;20432;-78
2024/01/16 05:34:10;;;;;;;6.13;2.65;;;-6.00;99.90;;;;;;5056772;28;20028;-78
2024/01/16 05:36:37;;;;;;;5.95;2.92;;;-6.00;99.90;;;;;;5058392;28;20177;-79
2024/01/16 05:39:02;;;;;;;10.02;4.07;;;-5.90;99.90;;;;;;5057566;28;20017;-79
2024/01/16 05:41:33;;;;;;;13.75;6.40;;;-5.90;99.90;;;;;;5046783;28;20021;-79
2024/01/16 05:43:59;;;;;;;11.52;5.97;;;-5.90;99.90;;;;;;5049329;28;20045;-79
2024/01/16 05:46:25;;;;;;;19.05;7.63;;;-6.00;99.90;;;;;;5045072;28;20382;-79
2024/01/16 05:48:50;;;;;;;13.02;6.43;;;-6.10;99.90;;;;;;5038251;28;20032;-79
2024/01/16 05:51:16;;;;;;;9.55;4.22;;;-6.10;99.90;;;;;;5038422;28;20028;-79
2024/01/16 05:53:43;;;;;;;8.00;3.30;;;-6.10;99.90;;;;;;5046188;28;20389;-79
2024/01/16 05:56:09;;;;;;;6.03;2.83;;;-6.10;99.90;;;;;;5059194;28;20075;-79
2024/01/16 05:58:38;;;;;;;9.13;3.45;;;-6.10;99.90;;;;;;5059207;28;20025;-79
2024/01/16 06:01:05;;;;;;;7.10;4.45;;;-6.00;99.90;;;;;;5041765;28;20029;-79
2024/01/16 06:03:31;;;;;;;6.97;3.75;;;-6.00;99.90;;;;;;5040852;28;20028;-79
2024/01/16 06:05:56;;;;;;;7.18;3.58;;;-6.00;99.90;;;;;;5057824;28;20055;-79
2024/01/16 06:08:22;;;;;;;6.03;2.83;;;-6.00;99.90;;;;;;5040985;28;20036;-79
2024/01/16 06:10:47;;;;;;;7.57;3.05;;;-6.00;99.90;;;;;;5057961;28;20037;-79
2024/01/16 06:13:13;;;;;;;6.38;2.95;;;-6.00;99.90;;;;;;5054457;28;20032;-79
2024/01/16 06:15:39;;;;;;;6.32;3.10;;;-5.90;99.90;;;;;;5038185;28;20088;-79
2024/01/16 06:18:04;;;;;;;4.55;2.42;;;-5.90;99.90;;;;;;5039199;28;20152;-79
2024/01/16 06:20:30;;;;;;;5.10;2.50;;;-5.90;99.90;;;;;;5039202;28;20033;-79
2024/01/16 06:22:56;;;;;;;6.68;2.60;;;-5.90;99.90;;;;;;5040810;28;20485;-79
2024/01/16 06:25:22;;;;;;;5.35;3.38;;;-5.80;99.90;;;;;;5057579;28;20061;-79
2024/01/16 06:27:48;;;;;;;7.80;3.70;;;-5.80;99.90;;;;;;5058293;28;20496;-79
2024/01/16 06:30:13;;;;;;;7.40;3.58;;;-5.80;99.90;;;;;;5057103;28;20029;-79
2024/01/16 06:32:39;;;;;;;8.40;4.07;;;-5.80;99.90;;;;;;5058169;28;20112;-79
2024/01/16 06:35:05;;;;;;;10.63;4.70;;;-5.80;99.90;;;;;;5040316;28;20033;-79
2024/01/16 06:37:31;;;;;;;9.32;4.70;;;-5.70;99.90;;;;;;5058592;28;20032;-79
2024/01/16 06:39:57;;;;;;;13.93;6.75;;;-5.70;99.90;;;;;;5057017;28;20083;-79
2024/01/16 06:42:22;;;;;;;11.35;5.13;;;-5.70;99.90;;;;;;5058809;28;20040;-79
2024/01/16 06:44:48;;;;;;;10.55;5.30;;;-5.80;99.90;;;;;;5040042;28;20030;-79
2024/01/16 06:47:14;;;;;;;10.95;4.60;;;-5.80;99.90;;;;;;5038549;28;20049;-79
2024/01/16 06:49:40;;;;;;;7.80;4.10;;;-5.80;99.90;;;;;;5037276;28;20029;-79
2024/01/16 06:52:08;;;;;;;14.10;6.72;;;-5.80;99.90;;;;;;5056448;28;20032;-79
2024/01/16 06:54:33;;;;;;;12.13;6.13;;;-5.90;99.90;;;;;;5043664;28;20079;-79
2024/01/16 06:56:59;;;;;;;10.73;5.35;;;-6.00;99.90;;;;;;5037751;28;20026;-79
2024/01/16 06:59:25;;;;;;;34.17;11.20;;;-6.10;99.90;;;;;;5037819;28;20025;-79
2024/01/16 07:01:51;;;;;;;16.67;7.35;;;-6.20;99.90;;;;;;5046425;28;20021;-79
2024/01/16 07:04:17;;;;;;;15.30;6.35;;;-6.30;99.90;;;;;;5057961;28;20124;-79
2024/01/16 07:06:43;;;;;;;15.60;6.85;;;-6.30;99.90;;;;;;5058226;28;20469;-79
2024/01/16 07:09:12;;;;;;;14.80;6.43;;;-6.40;99.90;;;;;;5039851;28;20041;-79
2024/01/16 07:11:42;;;;;;;11.20;5.15;;;-6.40;99.90;;;;;;5055926;28;20504;-79
2024/01/16 07:14:09;;;;;;;9.63;3.93;;;-6.50;99.90;;;;;;5046871;28;20026;-79
2024/01/16 07:16:34;;;;;;;10.00;4.80;;;-6.50;99.90;;;;;;5036507;28;20040;-79
2024/01/16 07:19:00;;;;;;;10.50;4.22;;;-6.50;99.90;;;;;;5036536;28;20100;-79
2024/01/16 07:21:27;;;;;;;9.80;4.85;;;-6.50;99.90;;;;;;5038017;28;20048;-79
2024/01/16 07:23:53;;;;;;;9.80;5.45;;;-6.40;99.90;;;;;;5044547;28;20481;-79
2024/01/16 07:26:19;;;;;;;16.67;6.32;;;-6.40;99.90;;;;;;5039747;28;20033;-79
2024/01/16 07:28:45;;;;;;;11.45;5.55;;;-6.30;99.90;;;;;;5056151;28;20507;-79
2024/01/16 07:31:11;;;;;;;10.73;4.72;;;-6.30;99.90;;;;;;5057446;28;20389;-79
2024/01/16 07:33:37;;;;;;;8.90;5.00;;;-6.20;99.90;;;;;;5056978;28;20074;-79
2024/01/16 07:36:03;;;;;;;11.05;5.50;;;-6.20;99.90;;;;;;5057856;28;20120;-79
2024/01/16 07:38:28;;;;;;;9.50;5.20;;;-6.20;99.90;;;;;;5055758;28;20033;-79
2024/01/16 07:40:56;;;;;;;12.07;5.38;;;-6.10;99.90;;;;;;5055734;28;20025;-80
2024/01/16 07:43:21;;;;;;;10.18;5.82;;;-6.10;99.90;;;;;;5034951;28;20025;-79
2024/01/16 07:45:48;;;;;;;15.73;6.95;;;-6.10;99.90;;;;;;5039167;28;20043;-79
2024/01/16 07:48:14;;;;;;;13.77;6.53;;;-6.10;99.90;;;;;;5037481;28;20022;-79
2024/01/16 07:50:40;;;;;;;17.02;7.78;;;-6.00;99.90;;;;;;5019018;28;20032;-79
2024/01/16 07:53:06;;;;;;;12.02;6.68;;;-6.00;99.90;;;;;;5020724;28;20124;-79
2024/01/16 07:55:31;;;;;;;12.00;6.00;;;-6.00;99.90;;;;;;5057197;28;20021;-79
2024/01/16 07:57:57;;;;;;;14.63;7.32;;;-5.90;99.90;;;;;;5055362;28;20087;-79
2024/01/16 08:00:23;;;;;;;16.08;7.25;;;-5.90;99.90;;;;;;5056637;28;20040;-79
2024/01/16 08:02:48;;;;;;;18.65;8.82;;;-5.90;99.90;;;;;;5055086;28;20040;-79
2024/01/16 08:05:14;;;;;;;20.25;9.93;;;-5.90;99.90;;;;;;5056464;28;20085;-79
2024/01/16 08:07:43;;;;;;;20.55;9.93;;;-5.90;99.90;;;;;;5055511;28;20032;-79
2024/01/16 08:10:09;;;;;;;15.95;8.65;;;-5.90;99.90;;;;;;5057014;28;20392;-79
2024/01/16 08:12:37;;;;;;;14.93;7.47;;;-6.00;99.90;;;;;;5056866;28;20032;-79
2024/01/16 08:15:03;;;;;;;13.40;7.03;;;-6.00;99.90;;;;;;5039424;28;20120;-80
2024/01/16 08:17:29;;;;;;;11.57;6.60;;;-6.00;99.90;;;;;;5035978;28;20109;-79
2024/01/16 08:19:54;;;;;;;11.77;6.00;;;-6.00;99.90;;;;;;5036555;28;20056;-79
2024/01/16 08:22:20;;;;;;;9.82;5.25;;;-6.00;99.90;;;;;;5037196;28;20034;-79
2024/01/16 08:24:46;;;;;;;10.55;5.13;;;-6.00;99.90;;;;;;5050896;28;20079;-79
2024/01/16 08:27:12;;;;;;;8.40;5.28;;;-6.00;99.90;;;;;;5055371;28;20115;-79
2024/01/16 08:29:37;;;;;;;7.93;4.57;;;-6.00;99.90;;;;;;5054999;28;20036;-79
2024/01/16 08:32:04;;;;;;;10.57;5.10;;;-6.00;99.90;;;;;;5056444;28;20036;-79
2024/01/16 08:34:29;;;;;;;12.85;6.03;;;-6.00;99.90;;;;;;5056115;28;20025;-78
2024/01/16 08:36:56;;;;;;;9.60;5.15;;;-6.00;99.90;;;;;;5056263;28;20416;-79
2024/01/16 08:39:23;;;;;;;8.00;4.30;;;-6.00;99.90;;;;;;5055539;28;20074;-79
2024/01/16 08:41:49;;;;;;;9.93;3.85;;;-6.00;99.90;;;;;;5055990;28;20021;-79
2024/01/16 08:44:15;;;;;;;8.93;4.05;;;-5.90;99.90;;;;;;5048374;28;20113;-79
2024/01/16 08:46:41;;;;;;;11.07;4.30;;;-6.00;99.90;;;;;;5038922;28;20450;-79
2024/01/16 08:49:06;;;;;;;9.35;4.15;;;-5.90;99.90;;;;;;5034765;28;20033;-79
2024/01/16 08:51:32;;;;;;;10.45;4.93;;;-5.90;99.90;;;;;;5036257;28;20030;-79
2024/01/16 08:53:58;;;;;;;9.50;4.60;;;-5.90;99.90;;;;;;5044640;28;20045;-79
2024/01/16 08:56:23;;;;;;;12.10;6.20;;;-5.90;99.90;;;;;;5055635;28;20033;-79
2024/01/16 08:58:49;;;;;;;14.70;6.90;;;-6.00;99.90;;;;;;5056467;28;20108;-78
2024/01/16 09:01:15;;;;;;;16.38;7.13;;;-6.00;99.90;;;;;;5054963;28;20064;-79
2024/01/16 09:03:43;;;;;;;19.50;7.32;;;-6.00;99.90;;;;;;5056252;28;20025;-79
2024/01/16 09:06:10;;;;;;;14.20;6.65;;;-5.90;99.90;;;;;;5056887;28;20132;-79
2024/01/16 09:08:36;;;;;;;15.07;6.72;;;-5.90;99.90;;;;;;5056664;28;20237;-79
2024/01/16 09:11:01;;;;;;;18.92;6.95;;;-5.80;99.90;;;;;;5056771;28;20112;-79
2024/01/16 09:13:27;;;;;;;12.52;6.65;;;-5.70;99.90;;;;;;5035556;28;20022;-79
2024/01/16 09:15:53;;;;;;;15.13;7.13;;;-5.60;99.90;;;;;;5038565;28;20030;-79
2024/01/16 09:18:18;;;;;;;17.58;7.38;;;-5.60;99.90;;;;;;5040333;28;20033;-79
2024/01/16 09:20:44;;;;;;;12.70;7.72;;;-5.50;99.90;;;;;;5039052;28;20512;-79
2024/01/16 09:23:10;;;;;;;19.90;8.15;;;-5.50;99.90;;;;;;5041286;28;20028;-79
2024/01/16 09:25:36;;;;;;;16.02;7.30;;;-5.40;99.90;;;;;;5058973;28;20428;-78
2024/01/16 09:28:02;;;;;;;17.40;7.70;;;-5.40;99.90;;;;;;5042594;28;20025;-78
2024/01/16 09:30:28;;;;;;;13.70;7.57;;;-5.30;99.90;;;;;;5059279;28;20035;-79
2024/01/16 09:32:53;;;;;;;14.75;8.32;;;-5.30;99.90;;;;;;5058992;28;20478;-79
2024/01/16 09:35:19;;;;;;;20.55;9.45;;;-5.20;99.90;;;;;;5059602;28;20032;-79
2024/01/16 09:37:45;;;;;;;20.98;8.95;;;-5.10;99.90;;;;;;5059842;28;20099;-79
2024/01/16 09:40:11;;;;;;;17.23;8.05;;;-5.00;99.90;;;;;;5059799;28;20108;-79
2024/01/16 09:42:37;;;;;;;17.30;8.30;;;-4.90;99.90;;;;;;5046185;28;20478;-79
2024/01/16 09:45:03;;;;;;;16.88;8.13;;;-4.80;99.90;;;;;;5053043;28;20029;-79
2024/01/16 09:47:33;;;;;;;18.95;8.90;;;-4.70;99.90;;;;;;5040808;28;20026;-79
2024/01/16 09:50:02;;;;;;;19.25;9.13;;;-4.60;99.90;;;;;;5040283;28;20029;-79
2024/01/16 09:52:29;;;;;;;19.35;8.88;;;-4.50;99.90;;;;;;5038729;28;20050;-79
2024/01/16 09:54:55;;;;;;;20.08;9.43;;;-4.40;99.90;;;;;;5053539;28;20025;-79
2024/01/16 09:57:25;;;;;;;21.92;10.45;;;-4.30;99.90;;;;;;5060043;28;20029;-79
2024/01/16 09:59:56;;;;;;;22.27;10.88;;;-4.20;99.90;;;;;;5060731;28;20489;-79
2024/01/16 10:02:23;;;;;;;17.50;9.85;;;-4.10;99.90;;;;;;5062153;28;20044;-79
2024/01/16 10:04:49;;;;;;;16.80;8.20;;;-4.00;99.90;;;;;;5028017;28;20033;-79
2024/01/16 10:07:16;;;;;;;18.05;8.15;;;-3.90;99.90;;;;;;5044483;28;20124;-79
2024/01/16 10:09:43;;;;;;;16.65;9.50;;;-3.90;99.90;;;;;;5061678;28;20552;-79
2024/01/16 10:12:10;;;;;;;15.63;9.02;;;-3.80;99.90;;;;;;5062202;28;20036;-79
2024/01/16 10:14:38;;;;;;;21.88;8.90;;;-3.70;99.90;;;;;;5049910;28;20021;-78
2024/01/16 10:17:23;;;;;;;16.92;8.43;;;-3.60;99.90;;;;;;5041397;28;20037;-79
2024/01/16 10:19:50;;;;;;;15.90;8.27;;;-3.50;99.90;;;;;;5041687;28;20501;-79
2024/01/16 10:22:27;;;;;;;14.68;8.90;;;-3.40;99.90;;;;;;5041719;28;20034;-79
2024/01/16 10:25:07;;;;;;;21.90;10.43;;;-3.30;99.90;;;;;;5038147;28;20037;-79
2024/01/16 10:27:33;;;;;;;18.13;9.25;;;-3.30;99.90;;;;;;5059952;28;20049;-79
2024/01/16 10:29:59;;;;;;;17.27;9.20;;;-3.20;99.90;;;;;;5061643;28;20033;-79
2024/01/16 10:32:35;;;;;;;19.38;8.95;;;-3.20;99.90;;;;;;5062506;28;20031;-79
2024/01/16 10:35:11;;;;;;;20.95;9.35;;;-3.10;99.90;;;;;;5061317;28;20485;-79
2024/01/16 10:37:50;;;;;;;17.40;9.23;;;-3.10;99.90;;;;;;5060872;28;20025;-79
2024/01/16 10:40:20;;;;;;;18.65;9.35;;;-3.00;99.90;;;;;;5060067;28;20089;-79
2024/01/16 10:42:56;;;;;;;19.00;9.07;;;-2.90;99.90;;;;;;5027416;28;20128;-79
2024/01/16 10:45:22;;;;;;;23.70;11.02;;;-2.90;99.90;;;;;;5051592;28;20045;-79
2024/01/16 10:47:59;;;;;;;24.02;10.45;;;-2.80;99.90;;;;;;5041284;28;20033;-79
2024/01/16 10:50:24;;;;;;;22.52;9.98;;;-2.70;99.90;;;;;;5040140;28;20021;-79
2024/01/16 10:52:53;;;;;;;21.52;9.23;;;-2.50;99.90;;;;;;5040425;28;20048;-79
2024/01/16 10:55:22;;;;;;;17.75;9.00;;;-2.40;99.90;;;;;;5058719;28;20057;-79
2024/01/16 10:57:50;;;;;;;19.52;9.40;;;-2.20;99.90;;;;;;5051859;28;20048;-79
2024/01/16 11:00:20;;;;;;;20.95;9.35;;;-2.10;99.90;;;;;;5039503;28;20030;-79
2024/01/16 11:03:01;;;;;;;14.70;7.57;;;-2.00;99.90;;;;;;5058303;28;20025;-79
2024/01/16 11:05:30;;;;;;;16.05;6.50;;;-1.90;99.90;;;;;;5060166;28;20043;-79
2024/01/16 11:07:56;;;;;;;13.45;5.95;;;-2.00;99.90;;;;;;5059745;28;20127;-79
2024/01/16 11:10:24;;;;;;;13.40;5.70;;;-2.10;99.90;;;;;;5059135;28;20029;-79
2024/01/16 11:12:52;;;;;;;13.65;5.68;;;-2.10;99.90;;;;;;5059651;28;20032;-77
2024/01/16 11:15:19;;;;;;;11.60;5.90;;;-2.20;99.90;;;;;;5043944;28;20022;-79
2024/01/16 11:17:45;;;;;;;12.30;5.72;;;-2.20;99.90;;;;;;5039241;28;20389;-79
2024/01/16 11:20:13;;;;;;;9.77;5.35;;;-2.20;99.90;;;;;;5038967;28;20478;-78
2024/01/16 11:22:42;;;;;;;10.60;5.68;;;-2.20;99.90;;;;;;5041415;28;20494;-79
2024/01/16 11:25:15;;;;;;;10.27;5.53;;;-2.20;99.90;;;;;;5053861;28;20025;-78
2024/01/16 11:27:42;;;;;;;13.40;5.65;;;-2.10;99.90;;;;;;5060209;28;20025;-79
2024/01/16 11:30:10;;;;;;;13.43;5.70;;;-2.00;99.90;;;;;;5060618;28;20025;-79
2024/01/16 11:32:40;;;;;;;12.23;5.70;;;-1.90;99.90;;;;;;5059000;28;20029;-79
2024/01/16 11:35:11;;;;;;;13.57;5.82;;;-1.80;99.90;;;;;;5060020;28;20024;-79
2024/01/16 11:37:41;;;;;;;10.63;5.13;;;-1.70;99.90;;;;;;5058813;28;20032;-79
2024/01/16 11:40:31;;;;;;;9.63;5.43;;;-1.60;99.90;;;;;;5059774;28;20056;-79
2024/01/16 11:42:57;;;;;;;11.27;5.05;;;-1.50;99.90;;;;;;5037155;28;20056;-78
2024/01/16 11:45:29;;;;;;;9.65;5.13;;;-1.50;99.90;;;;;;5049767;28;20049;-79
2024/01/16 11:48:15;;;;;;;8.98;4.78;;;-1.40;99.90;;;;;;5038206;28;20547;-79
2024/01/16 11:50:42;;;;;;;9.52;4.80;;;-1.40;99.90;;;;;;5039150;28;20038;-79
2024/01/16 11:53:07;;;;;;;10.73;4.45;;;-1.30;99.90;;;;;;5022178;28;20112;-79
2024/01/16 11:55:49;;;;;;;13.02;5.15;;;-1.20;99.90;;;;;;5056381;28;20563;-79
2024/01/16 11:58:38;;;;;;;9.70;4.43;;;-1.20;99.90;;;;;;5056726;28;20021;-79
2024/01/16 12:01:05;;;;;;;9.25;4.72;;;-1.10;99.90;;;;;;5048092;28;20067;-80
2024/01/16 12:03:31;;;;;;;10.35;5.03;;;-1.20;99.90;;;;;;5060653;28;20056;-80
2024/01/16 12:05:58;;;;;;;11.70;5.10;;;-1.30;99.90;;;;;;5059844;28;20025;-79
2024/01/16 12:08:24;;;;;;;10.80;4.75;;;-1.30;99.90;;;;;;5060376;28;20028;-79
2024/01/16 12:10:51;;;;;;;9.07;4.35;;;-1.40;99.90;;;;;;5058453;28;20029;-79
2024/01/16 12:13:16;;;;;;;7.68;4.20;;;-1.50;99.90;;;;;;5041979;28;20021;-79
2024/01/16 12:15:44;;;;;;;12.75;4.85;;;-1.40;99.90;;;;;;5039346;28;20562;-79
2024/01/16 12:18:10;;;;;;;9.90;5.07;;;-1.40;99.90;;;;;;5038771;28;20071;-80
2024/01/16 12:20:37;;;;;;;11.30;4.85;;;-1.30;99.90;;;;;;5022540;28;20029;-79
2024/01/16 12:23:07;;;;;;;8.73;4.40;;;-1.30;99.90;;;;;;5039395;28;20154;-79
2024/01/16 12:25:37;;;;;;;9.27;5.20;;;-1.30;99.90;;;;;;5026670;28;20029;-80
2024/01/16 12:28:10;;;;;;;8.88;4.40;;;-1.20;99.90;;;;;;5023440;28;20060;-79
2024/01/16 12:30:37;;;;;;;9.75;4.60;;;-1.20;99.90;;;;;;5020281;28;20494;-79
2024/01/16 12:33:13;;;;;;;12.00;5.25;;;-1.10;99.90;;;;;;5057363;28;20056;-80
2024/01/16 12:35:40;;;;;;;8.63;4.70;;;-1.00;99.90;;;;;;5058131;28;20482;-79
2024/01/16 12:38:11;;;;;;;10.35;4.72;;;-0.80;99.90;;;;;;5041285;28;20021;-79
2024/01/16 12:40:39;;;;;;;11.80;4.75;;;-0.70;99.90;;;;;;5058765;28;20028;-79